This is the latest recevied weather packets stored in our database for station/object SQ8AQX-13. If no packets are shown the sender has not sent any weather packets the latest 10 day(s).
| Time | Temp. | Humidity | Pressure | Rain* | Wind** | Luminosity | Snow |
|---|---|---|---|---|---|---|---|
| 1777659781 | 15.56° C | 50% | 1026.4 hPa | - | - | - | - |
| 1777659181 | 16.11° C | 50% | 1026.3 hPa | - | - | - | - |
| 1777658581 | 16.11° C | 47% | 1026.2 hPa | - | - | - | - |
| 1777656781 | 16.67° C | 46% | 1026 hPa | - | - | - | - |
| 1777656181 | 17.22° C | 46% | 1026 hPa | - | - | - | - |
| 1777655581 | 17.22° C | 43% | 1026 hPa | - | - | - | - |
| 1777652580 | 17.78° C | 42% | 1026.1 hPa | - | - | - | - |
| 1777651980 | 18.33° C | 40% | 1026.2 hPa | - | - | - | - |
| 1777650180 | 17.78° C | 40% | 1026.2 hPa | - | - | - | - |
| 1777649580 | 18.33° C | 37% | 1026.3 hPa | - | - | - | - |
| 1777648980 | 18.33° C | 38% | 1026.3 hPa | - | - | - | - |
| 1777647179 | 17.78° C | 38% | 1026.4 hPa | - | - | - | - |
| 1777646579 | 18.33° C | 37% | 1026.5 hPa | - | - | - | - |
| 1777645979 | 18.33° C | 38% | 1026.5 hPa | - | - | - | - |
| 1777644179 | 18.33° C | 38% | 1026.7 hPa | - | - | - | - |
| 1777643578 | 18.89° C | 36% | 1026.6 hPa | - | - | - | - |
| 1777642978 | 18.89° C | 35% | 1026.6 hPa | - | - | - | - |
| 1777639980 | 18.89° C | 35% | 1027.2 hPa | - | - | - | - |
| 1777639378 | 18.89° C | 36% | 1027.3 hPa | - | - | - | - |
| 1777638778 | 18.33° C | 37% | 1027.4 hPa | - | - | - | - |
| 1777638181 | 18.33° C | 38% | 1027.5 hPa | - | - | - | - |
| 1777636377 | 18.33° C | 35% | 1027.8 hPa | - | - | - | - |
| 1777635777 | 18.33° C | 36% | 1027.9 hPa | - | - | - | - |
| 1777635177 | 17.78° C | 38% | 1027.9 hPa | - | - | - | - |
| 1777633377 | 16.11° C | 41% | 1028.2 hPa | - | - | - | - |
* Rain since midnight (hover to see other rain measurements)
** Current wind speed in m/s (hover to see current wind gust speed)